AirNav   Everest Fuels
 
 1542 users online  

5AL0 Marshall Medical Center North Heliport
Guntersville, Alabama, USA

GOING TO GUNTERSVILLE?


FAA INFORMATION EFFECTIVE 07 NOVEMBER 2019

Location

FAA Identifier: 5AL0
Lat/Long: 34-21-54.6200N 086-25-22.7100W
34-21.910333N 086-25.378500W
34.3651722,-86.4229750
(estimated)
Elevation: 1024 ft. / 312 m (estimated)
From city: 6 miles W of GUNTERSVILLE, AL
Time zone: UTC -6 (UTC -5 during Daylight Saving Time)
Zip code: 35175

Heliport Operations

Heliport use: Private use. Permission required prior to landing
Activation date: 07/2016
Control tower: no
ARTCC: MEMPHIS CENTER
FSS: ANNISTON FLIGHT SERVICE STATION
Attendance: CONTINUOUS
Wind indicator: yes
Segmented circle: no

Heliport Communications

WX AWOS-3PT at 8A0 (12 nm SE): 119.575 (256-891-8259)

Nearby radio navigation aids

VOR radial/distance  VOR name  Freq  Var
RQZr156/27.9ROCKET VORTAC112.2002E
GADr322/28.8GADSDEN VOR/DME112.3002E
DCUr125/30.7DECATUR VOR/DME112.8001W

 
NDB name  Hdg/Dist  Freq  Var  ID
REDSTONE151/23.928704WHUA .... ..- .-
FORT PAYNE260/38.342604WFTP ..-. - .--.

Heliport Services

Runway Information

Helipad H1

Dimensions: 40 x 40 ft. / 12 x 12 m
Surface: concrete
Latitude: 34-21.910000N
Longitude: 086-25.378500W
Elevation: 1024.0 ft.
Traffic pattern: leftleft

Heliport Ownership and Management from official FAA records

Ownership: Privately-owned
Owner: MARSHALL MEDICAL CENTER NORTH
8000 ALABAMA HIGHWAY 69
GUNTERSVILLE, AL 35976
Phone 256 571 8000
Manager: STEVEN MARTIN
8000 ALABAMA HIGHWAY 69
GUNTERSVILLE, AL 35976
Phone 256 571 8199

Additional Remarks

FOR CD CTC MEMPHIS ARTCC AT 901-368-8453.

Instrument Procedures

There are no published instrument procedures at 5AL0.

Some nearby airports with instrument procedures:

8A1 - Guntersville Municipal Airport - Joe Starnes Field (8 nm E)
8A0 - Albertville Regional Airport-Thomas J Brumlik Field (12 nm SE)
KCMD - Cullman Regional Airport-Folsom Field (22 nm W)
KHUA - Redstone Army Airfield (23 nm NW)
20A - Robbins Field Airport (24 nm S)
 
Loc | Ops | Rwys | IFR | FBO | Links
Com | Nav | Svcs | Stats | Notes
Aerial photo
No photo
 
Airport distance calculator
Flying to Marshall Medical Center North Heliport? Find the distance to fly.

From to 5AL0

Sunrise and sunset
Times for 22-Nov-2019
 Local
(UTC-6)
 Zulu
(UTC)
Morning civil twilight06:0012:00
Sunrise06:2712:27
Sunset16:3722:37
Evening civil twilight17:0423:04

Current date and time
Zulu (UTC)  22-Nov-2019 15:27:04
Local (UTC-6)  22-Nov-2019 09:27:04
 
METAR
K8A0 
12nm SE 
221515Z AUTO 21010G16KT 10SM SCT015 SCT049 BKN110 16/12 A3007 RMK AO2 PWINO
KCMD 
22nm W 
221515Z AUTO 20011G16KT 7SM -RA SCT009 BKN042 OVC075 15/13 A3007 RMK AO2 T01450125
KHUA 
23nm NW 
221518Z AUTO 22010KT 8SM -RA FEW005 SCT014 BKN019 BKN025 OVC065 17/14 A3002 RMK AO2 RAB14 CIG 016V026 SLP165
TAF
KHSV 
25nm NW 
221123Z 2212/2312 20005KT P6SM VCSH BKN040 BKN080 OVC110 FM221600 20007KT 5SM -RA BR SCT008 BKN020 FM221900 20007KT 4SM -SHRA BR SCT004 OVC009 FM222300 10005KT 3SM -SHRA BR OVC005 FM230800 15007KT 5SM SHRA BR BKN005 OVC015
NOTAMs
Click for the latest NOTAMs
NOTAMs are issued by the DoD/FAA and will open in a separate window not controlled by AirNav.

 

 
 

Would you like to see your business listed on this page?

 If your business provides an interesting product or service to pilots, flight crews, aircraft, or users of the Marshall Medical Center North Heliport, you should consider listing it here.  To start the listing process, click on the button below
 
Add a business
 

Other Pages about Marshall Medical Center North Heliport

Update a link
 
Copyright © AirNav, LLC. All rights reserved. Privacy Policy  Contact